Altair, TX

11:43 PM CDT on October 31, 2014 (GMT -0500)
Borden | Change Station
CLOSE
Current Station
Personal Weather Station
Location: Weimar, TX
Elevation: 341 ft
Nearby Weather Stations

Elev 341 ft 29.66 °N, 96.67 °W | Updated 3 seconds ago

Clear
Clear
53.6 °F
Feels Like 53.6 °F
N
0.0
Wind Variable Wind from North
Gusts 0.0 mph

Today
High -- | Low -- °F
--% Chance of Precip.
Yesterday
High -- | Low -- °F
Precip. -- in
7:38 AM 6:40 PM
Waxing Gibbous, 62% visible
Pressure 30.29 in
Visibility 10.0 miles
Clouds Clear
Dew Point 44 °F
Humidity 70%
Rainfall 0.00 in
Snow Depth Not available.
UV 0.0 out of 12
Pollen 4.30 out of 12
Air Quality Not available.
Flu Activity Not available.
METAR K3T5 010435Z AUTO 02003KT 10SM CLR 14/07 A3029 RMK AO2 T01390066

More Conditions Fewer Conditions

Pressure 30.29 in
Visibility 10.0 miles
Clouds Clear
Dew Point 44 °F
Humidity 70%
Rainfall 0.00 in
Snow Depth Not available.
UV 0.0 out of 12
Pollen 4.30 out of 12
Air Quality Not available.
Flu Activity Not available.
METAR K3T5 010435Z AUTO 02003KT 10SM CLR 14/07 A3029 RMK AO2 T01390066

More Conditions Fewer Conditions

10-Day Weather Forecast

Almanac

Astronomy

Oct. 31, 2014 Rise Set
Actual Time
Civil Twilight
Nautical Twilight
Astronomical Twilight
Moon
Length of Visible Light
Length of Day
Tomorrow will be .
, % of the Moon is Illuminated

Today's Extremes

State Highs State Lows

Community

WunderPhotos

Upload Photos

1,766,854 photos uploaded!

WunderBlogs® & News

Nearby

Air Quality

  Air Quality AQ Index Pollutant
Not available.

Snow Depth

Station Depth Elevation

Earthquake Activity

City Distance Mag. Time & Date
Minimum magnitude displayed is 2.5.

Coastal Water Temperatures

Place Temperature

Nearby Weather Stations